sensor_id;sensor_type;location;lat;lon;timestamp;P1;durP1;ratioP1;P2;durP2;ratioP2
74679;SDS011;63211;48.548;2.704;2023-05-13T00:01:18;1.00;;;0.50;;
74679;SDS011;63211;48.548;2.704;2023-05-13T00:03:44;1.85;;;0.50;;
74679;SDS011;63211;48.548;2.704;2023-05-13T00:06:12;0.90;;;0.52;;
74679;SDS011;63211;48.548;2.704;2023-05-13T00:08:39;0.52;;;0.40;;
74679;SDS011;63211;48.548;2.704;2023-05-13T00:11:05;0.88;;;0.30;;
74679;SDS011;63211;48.548;2.704;2023-05-13T00:13:32;2.10;;;0.63;;
74679;SDS011;63211;48.548;2.704;2023-05-13T00:15:59;0.93;;;0.43;;
74679;SDS011;63211;48.548;2.704;2023-05-13T00:18:25;0.80;;;0.30;;
74679;SDS011;63211;48.548;2.704;2023-05-13T00:20:52;0.95;;;0.45;;
74679;SDS011;63211;48.548;2.704;2023-05-13T00:23:21;0.85;;;0.50;;
74679;SDS011;63211;48.548;2.704;2023-05-13T00:25:48;0.93;;;0.47;;
74679;SDS011;63211;48.548;2.704;2023-05-13T00:28:14;1.00;;;0.40;;
74679;SDS011;63211;48.548;2.704;2023-05-13T00:30:41;1.05;;;0.30;;
74679;SDS011;63211;48.548;2.704;2023-05-13T00:33:09;1.10;;;0.55;;
74679;SDS011;63211;48.548;2.704;2023-05-13T00:35:36;0.60;;;0.30;;
74679;SDS011;63211;48.548;2.704;2023-05-13T00:38:03;0.90;;;0.60;;
74679;SDS011;63211;48.548;2.704;2023-05-13T00:40:31;0.50;;;0.30;;
74679;SDS011;63211;48.548;2.704;2023-05-13T00:42:59;1.27;;;0.40;;
74679;SDS011;63211;48.548;2.704;2023-05-13T00:45:26;0.60;;;0.40;;
74679;SDS011;63211;48.548;2.704;2023-05-13T00:47:52;0.77;;;0.30;;
74679;SDS011;63211;48.548;2.704;2023-05-13T00:50:19;1.05;;;0.40;;
74679;SDS011;63211;48.548;2.704;2023-05-13T00:52:46;0.60;;;0.25;;
74679;SDS011;63211;48.548;2.704;2023-05-13T00:55:15;1.77;;;0.50;;
74679;SDS011;63211;48.548;2.704;2023-05-13T00:57:43;1.60;;;0.40;;
74679;SDS011;63211;48.548;2.704;2023-05-13T01:00:10;1.25;;;0.40;;
74679;SDS011;63211;48.548;2.704;2023-05-13T01:02:38;1.10;;;0.28;;
74679;SDS011;63211;48.548;2.704;2023-05-13T01:05:17;0.88;;;0.40;;
74679;SDS011;63211;48.548;2.704;2023-05-13T01:07:53;0.60;;;0.50;;
74679;SDS011;63211;48.548;2.704;2023-05-13T01:10:28;1.25;;;0.38;;
74679;SDS011;63211;48.548;2.704;2023-05-13T01:13:02;0.77;;;0.30;;
74679;SDS011;63211;48.548;2.704;2023-05-13T01:15:37;1.23;;;0.30;;
74679;SDS011;63211;48.548;2.704;2023-05-13T01:18:10;1.25;;;0.50;;
74679;SDS011;63211;48.548;2.704;2023-05-13T01:20:39;1.02;;;0.73;;
74679;SDS011;63211;48.548;2.704;2023-05-13T01:23:09;1.92;;;0.32;;
74679;SDS011;63211;48.548;2.704;2023-05-13T01:25:36;0.93;;;0.30;;
74679;SDS011;63211;48.548;2.704;2023-05-13T01:28:03;0.75;;;0.40;;
74679;SDS011;63211;48.548;2.704;2023-05-13T01:30:30;0.63;;;0.35;;
74679;SDS011;63211;48.548;2.704;2023-05-13T01:32:57;0.73;;;0.38;;
74679;SDS011;63211;48.548;2.704;2023-05-13T01:35:24;1.52;;;0.30;;
74679;SDS011;63211;48.548;2.704;2023-05-13T01:37:53;0.75;;;0.40;;
74679;SDS011;63211;48.548;2.704;2023-05-13T01:40:23;0.40;;;0.35;;
74679;SDS011;63211;48.548;2.704;2023-05-13T01:42:50;0.88;;;0.43;;
74679;SDS011;63211;48.548;2.704;2023-05-13T01:45:17;0.45;;;0.20;;
74679;SDS011;63211;48.548;2.704;2023-05-13T01:47:43;0.65;;;0.20;;
74679;SDS011;63211;48.548;2.704;2023-05-13T01:50:10;1.25;;;0.47;;
74679;SDS011;63211;48.548;2.704;2023-05-13T01:52:37;0.77;;;0.32;;
74679;SDS011;63211;48.548;2.704;2023-05-13T01:55:04;0.60;;;0.25;;
74679;SDS011;63211;48.548;2.704;2023-05-13T01:57:32;0.90;;;0.50;;
74679;SDS011;63211;48.548;2.704;2023-05-13T01:59:59;1.15;;;0.43;;
74679;SDS011;63211;48.548;2.704;2023-05-13T02:02:26;0.68;;;0.32;;
74679;SDS011;63211;48.548;2.704;2023-05-13T02:04:52;1.13;;;0.40;;
74679;SDS011;63211;48.548;2.704;2023-05-13T02:07:19;1.25;;;0.50;;
74679;SDS011;63211;48.548;2.704;2023-05-13T02:09:46;0.82;;;0.30;;
74679;SDS011;63211;48.548;2.704;2023-05-13T02:12:12;0.70;;;0.32;;
74679;SDS011;63211;48.548;2.704;2023-05-13T02:14:41;1.10;;;0.28;;
74679;SDS011;63211;48.548;2.704;2023-05-13T02:17:07;0.55;;;0.38;;
74679;SDS011;63211;48.548;2.704;2023-05-13T02:19:34;0.70;;;0.43;;
74679;SDS011;63211;48.548;2.704;2023-05-13T02:22:00;0.30;;;0.28;;
74679;SDS011;63211;48.548;2.704;2023-05-13T02:24:29;1.00;;;0.40;;
74679;SDS011;63211;48.548;2.704;2023-05-13T02:26:56;0.80;;;0.40;;
74679;SDS011;63211;48.548;2.704;2023-05-13T02:29:22;0.57;;;0.25;;
74679;SDS011;63211;48.548;2.704;2023-05-13T02:31:50;0.65;;;0.30;;
74679;SDS011;63211;48.548;2.704;2023-05-13T02:34:17;0.95;;;0.35;;
74679;SDS011;63211;48.548;2.704;2023-05-13T02:36:43;0.98;;;0.30;;
74679;SDS011;63211;48.548;2.704;2023-05-13T02:39:10;0.88;;;0.50;;
74679;SDS011;63211;48.548;2.704;2023-05-13T02:41:37;0.88;;;0.30;;
74679;SDS011;63211;48.548;2.704;2023-05-13T02:44:03;0.70;;;0.35;;
74679;SDS011;63211;48.548;2.704;2023-05-13T02:46:30;1.08;;;0.70;;
74679;SDS011;63211;48.548;2.704;2023-05-13T02:48:58;1.48;;;0.40;;
74679;SDS011;63211;48.548;2.704;2023-05-13T02:51:24;0.98;;;0.35;;
74679;SDS011;63211;48.548;2.704;2023-05-13T02:53:51;0.60;;;0.30;;
74679;SDS011;63211;48.548;2.704;2023-05-13T02:56:18;0.52;;;0.25;;
74679;SDS011;63211;48.548;2.704;2023-05-13T02:58:44;0.63;;;0.20;;
74679;SDS011;63211;48.548;2.704;2023-05-13T03:01:11;1.02;;;0.40;;
74679;SDS011;63211;48.548;2.704;2023-05-13T03:03:38;1.23;;;0.50;;
74679;SDS011;63211;48.548;2.704;2023-05-13T03:06:06;1.02;;;0.47;;
74679;SDS011;63211;48.548;2.704;2023-05-13T03:08:33;1.00;;;0.40;;
74679;SDS011;63211;48.548;2.704;2023-05-13T03:11:00;0.68;;;0.43;;
74679;SDS011;63211;48.548;2.704;2023-05-13T03:13:26;0.47;;;0.22;;
74679;SDS011;63211;48.548;2.704;2023-05-13T03:15:53;1.33;;;0.50;;
74679;SDS011;63211;48.548;2.704;2023-05-13T03:18:20;1.30;;;0.40;;
74679;SDS011;63211;48.548;2.704;2023-05-13T03:20:46;0.85;;;0.30;;
74679;SDS011;63211;48.548;2.704;2023-05-13T03:23:14;1.02;;;0.35;;
74679;SDS011;63211;48.548;2.704;2023-05-13T03:25:41;1.25;;;0.30;;
74679;SDS011;63211;48.548;2.704;2023-05-13T03:28:07;0.98;;;0.40;;
74679;SDS011;63211;48.548;2.704;2023-05-13T03:30:34;1.40;;;0.28;;
74679;SDS011;63211;48.548;2.704;2023-05-13T03:33:00;0.55;;;0.30;;
74679;SDS011;63211;48.548;2.704;2023-05-13T03:35:27;0.88;;;0.32;;
74679;SDS011;63211;48.548;2.704;2023-05-13T03:37:54;1.02;;;0.40;;
74679;SDS011;63211;48.548;2.704;2023-05-13T03:40:22;0.85;;;0.38;;
74679;SDS011;63211;48.548;2.704;2023-05-13T03:42:48;0.95;;;0.50;;
74679;SDS011;63211;48.548;2.704;2023-05-13T03:45:15;1.45;;;0.43;;
74679;SDS011;63211;48.548;2.704;2023-05-13T03:47:42;0.60;;;0.40;;
74679;SDS011;63211;48.548;2.704;2023-05-13T03:50:08;0.70;;;0.30;;
74679;SDS011;63211;48.548;2.704;2023-05-13T03:52:36;0.75;;;0.38;;
74679;SDS011;63211;48.548;2.704;2023-05-13T03:55:02;0.60;;;0.20;;
74679;SDS011;63211;48.548;2.704;2023-05-13T03:57:31;0.52;;;0.30;;
74679;SDS011;63211;48.548;2.704;2023-05-13T03:59:57;0.93;;;0.30;;
74679;SDS011;63211;48.548;2.704;2023-05-13T04:02:24;0.90;;;0.50;;
74679;SDS011;63211;48.548;2.704;2023-05-13T04:04:51;0.77;;;0.40;;
74679;SDS011;63211;48.548;2.704;2023-05-13T04:07:17;1.48;;;0.43;;
74679;SDS011;63211;48.548;2.704;2023-05-13T04:09:44;0.93;;;0.43;;
74679;SDS011;63211;48.548;2.704;2023-05-13T04:12:10;0.65;;;0.30;;
74679;SDS011;63211;48.548;2.704;2023-05-13T04:14:38;0.50;;;0.20;;
74679;SDS011;63211;48.548;2.704;2023-05-13T04:17:05;1.05;;;0.50;;
74679;SDS011;63211;48.548;2.704;2023-05-13T04:19:31;0.38;;;0.15;;
74679;SDS011;63211;48.548;2.704;2023-05-13T04:21:58;1.38;;;0.43;;
74679;SDS011;63211;48.548;2.704;2023-05-13T04:24:25;1.17;;;0.40;;
74679;SDS011;63211;48.548;2.704;2023-05-13T04:26:51;0.90;;;0.32;;
74679;SDS011;63211;48.548;2.704;2023-05-13T04:29:18;0.82;;;0.30;;
74679;SDS011;63211;48.548;2.704;2023-05-13T04:31:46;0.80;;;0.28;;
74679;SDS011;63211;48.548;2.704;2023-05-13T04:34:12;1.10;;;0.50;;
74679;SDS011;63211;48.548;2.704;2023-05-13T04:36:39;0.75;;;0.40;;
74679;SDS011;63211;48.548;2.704;2023-05-13T04:39:05;0.38;;;0.20;;
74679;SDS011;63211;48.548;2.704;2023-05-13T04:41:32;0.65;;;0.38;;
74679;SDS011;63211;48.548;2.704;2023-05-13T04:43:59;0.90;;;0.25;;
74679;SDS011;63211;48.548;2.704;2023-05-13T04:46:26;0.85;;;0.38;;
74679;SDS011;63211;48.548;2.704;2023-05-13T04:48:54;0.43;;;0.30;;
74679;SDS011;63211;48.548;2.704;2023-05-13T04:51:21;0.98;;;0.50;;
74679;SDS011;63211;48.548;2.704;2023-05-13T04:53:47;0.80;;;0.30;;
74679;SDS011;63211;48.548;2.704;2023-05-13T04:56:14;1.85;;;0.80;;
74679;SDS011;63211;48.548;2.704;2023-05-13T04:58:41;0.50;;;0.40;;
74679;SDS011;63211;48.548;2.704;2023-05-13T05:01:07;0.90;;;0.40;;
74679;SDS011;63211;48.548;2.704;2023-05-13T05:03:34;0.32;;;0.15;;
74679;SDS011;63211;48.548;2.704;2023-05-13T05:06:02;0.68;;;0.30;;
74679;SDS011;63211;48.548;2.704;2023-05-13T05:08:29;0.98;;;0.40;;
74679;SDS011;63211;48.548;2.704;2023-05-13T05:10:55;1.08;;;0.38;;
74679;SDS011;63211;48.548;2.704;2023-05-13T05:13:22;0.88;;;0.30;;
74679;SDS011;63211;48.548;2.704;2023-05-13T05:15:48;0.85;;;0.30;;
74679;SDS011;63211;48.548;2.704;2023-05-13T05:18:15;1.10;;;0.30;;
74679;SDS011;63211;48.548;2.704;2023-05-13T05:20:41;1.00;;;0.43;;
74679;SDS011;63211;48.548;2.704;2023-05-13T05:23:09;1.17;;;0.50;;
74679;SDS011;63211;48.548;2.704;2023-05-13T05:25:36;0.73;;;0.30;;
74679;SDS011;63211;48.548;2.704;2023-05-13T05:28:03;0.77;;;0.40;;
74679;SDS011;63211;48.548;2.704;2023-05-13T05:30:30;0.85;;;0.30;;
74679;SDS011;63211;48.548;2.704;2023-05-13T05:33:03;0.95;;;0.40;;
74679;SDS011;63211;48.548;2.704;2023-05-13T05:35:30;1.00;;;0.50;;
74679;SDS011;63211;48.548;2.704;2023-05-13T05:37:57;0.70;;;0.40;;
74679;SDS011;63211;48.548;2.704;2023-05-13T05:40:25;0.70;;;0.40;;
74679;SDS011;63211;48.548;2.704;2023-05-13T05:42:52;0.95;;;0.50;;
74679;SDS011;63211;48.548;2.704;2023-05-13T05:45:18;0.90;;;0.35;;
74679;SDS011;63211;48.548;2.704;2023-05-13T05:47:45;1.15;;;0.50;;
74679;SDS011;63211;48.548;2.704;2023-05-13T05:50:11;1.13;;;0.47;;
74679;SDS011;63211;48.548;2.704;2023-05-13T05:52:38;0.82;;;0.40;;
74679;SDS011;63211;48.548;2.704;2023-05-13T05:55:05;0.60;;;0.28;;
74679;SDS011;63211;48.548;2.704;2023-05-13T05:57:34;0.85;;;0.30;;
74679;SDS011;63211;48.548;2.704;2023-05-13T06:00:00;0.60;;;0.45;;
74679;SDS011;63211;48.548;2.704;2023-05-13T06:02:27;0.55;;;0.30;;
74679;SDS011;63211;48.548;2.704;2023-05-13T06:04:54;0.95;;;0.40;;
74679;SDS011;63211;48.548;2.704;2023-05-13T06:07:20;0.73;;;0.40;;
74679;SDS011;63211;48.548;2.704;2023-05-13T06:09:47;1.48;;;0.43;;
74679;SDS011;63211;48.548;2.704;2023-05-13T06:12:13;0.50;;;0.32;;
74679;SDS011;63211;48.548;2.704;2023-05-13T06:14:41;0.82;;;0.30;;
74679;SDS011;63211;48.548;2.704;2023-05-13T06:17:08;0.98;;;0.40;;
74679;SDS011;63211;48.548;2.704;2023-05-13T06:19:34;0.50;;;0.40;;
74679;SDS011;63211;48.548;2.704;2023-05-13T06:22:01;0.98;;;0.40;;
74679;SDS011;63211;48.548;2.704;2023-05-13T06:24:28;1.42;;;0.77;;
74679;SDS011;63211;48.548;2.704;2023-05-13T06:26:54;0.75;;;0.35;;
74679;SDS011;63211;48.548;2.704;2023-05-13T06:29:21;1.35;;;0.50;;
74679;SDS011;63211;48.548;2.704;2023-05-13T06:31:49;0.82;;;0.40;;
74679;SDS011;63211;48.548;2.704;2023-05-13T06:34:15;1.15;;;0.50;;
74679;SDS011;63211;48.548;2.704;2023-05-13T06:36:42;0.57;;;0.40;;
74679;SDS011;63211;48.548;2.704;2023-05-13T06:39:09;0.85;;;0.32;;
74679;SDS011;63211;48.548;2.704;2023-05-13T06:41:37;1.70;;;0.55;;
74679;SDS011;63211;48.548;2.704;2023-05-13T06:44:04;1.02;;;0.32;;
74679;SDS011;63211;48.548;2.704;2023-05-13T06:46:31;0.90;;;0.30;;
74679;SDS011;63211;48.548;2.704;2023-05-13T06:49:00;0.65;;;0.35;;
74679;SDS011;63211;48.548;2.704;2023-05-13T06:51:26;1.92;;;0.40;;
74679;SDS011;63211;48.548;2.704;2023-05-13T06:53:54;1.00;;;0.40;;
74679;SDS011;63211;48.548;2.704;2023-05-13T06:56:21;1.73;;;0.40;;
74679;SDS011;63211;48.548;2.704;2023-05-13T06:58:48;1.60;;;0.32;;
74679;SDS011;63211;48.548;2.704;2023-05-13T07:01:14;0.70;;;0.30;;
74679;SDS011;63211;48.548;2.704;2023-05-13T07:03:41;0.82;;;0.50;;
74679;SDS011;63211;48.548;2.704;2023-05-13T07:06:09;1.48;;;0.45;;
74679;SDS011;63211;48.548;2.704;2023-05-13T07:08:36;0.98;;;0.40;;
74679;SDS011;63211;48.548;2.704;2023-05-13T07:11:04;0.90;;;0.50;;
74679;SDS011;63211;48.548;2.704;2023-05-13T07:13:31;0.73;;;0.40;;
74679;SDS011;63211;48.548;2.704;2023-05-13T07:15:59;0.85;;;0.50;;
74679;SDS011;63211;48.548;2.704;2023-05-13T07:18:26;2.42;;;0.52;;
74679;SDS011;63211;48.548;2.704;2023-05-13T07:20:52;0.88;;;0.50;;
74679;SDS011;63211;48.548;2.704;2023-05-13T07:23:21;1.65;;;0.70;;
74679;SDS011;63211;48.548;2.704;2023-05-13T07:25:48;0.95;;;0.40;;
74679;SDS011;63211;48.548;2.704;2023-05-13T07:28:15;0.77;;;0.40;;
74679;SDS011;63211;48.548;2.704;2023-05-13T07:30:44;1.00;;;0.50;;
74679;SDS011;63211;48.548;2.704;2023-05-13T07:33:11;0.55;;;0.40;;
74679;SDS011;63211;48.548;2.704;2023-05-13T07:35:38;0.95;;;0.35;;
74679;SDS011;63211;48.548;2.704;2023-05-13T07:38:05;0.90;;;0.40;;
74679;SDS011;63211;48.548;2.704;2023-05-13T07:40:35;0.73;;;0.32;;
74679;SDS011;63211;48.548;2.704;2023-05-13T07:43:02;5.30;;;1.02;;
74679;SDS011;63211;48.548;2.704;2023-05-13T07:45:29;2.20;;;0.90;;
74679;SDS011;63211;48.548;2.704;2023-05-13T07:47:55;3.38;;;0.98;;
74679;SDS011;63211;48.548;2.704;2023-05-13T07:50:22;4.68;;;0.70;;
74679;SDS011;63211;48.548;2.704;2023-05-13T07:52:48;1.38;;;0.70;;
74679;SDS011;63211;48.548;2.704;2023-05-13T07:55:16;1.13;;;0.55;;
74679;SDS011;63211;48.548;2.704;2023-05-13T07:57:44;5.00;;;0.90;;
74679;SDS011;63211;48.548;2.704;2023-05-13T08:00:11;0.95;;;0.57;;
74679;SDS011;63211;48.548;2.704;2023-05-13T08:02:40;0.80;;;0.60;;
74679;SDS011;63211;48.548;2.704;2023-05-13T08:05:08;1.30;;;0.70;;
74679;SDS011;63211;48.548;2.704;2023-05-13T08:07:34;2.25;;;0.68;;
74679;SDS011;63211;48.548;2.704;2023-05-13T08:10:01;1.40;;;0.90;;
74679;SDS011;63211;48.548;2.704;2023-05-13T08:12:28;0.98;;;0.45;;
74679;SDS011;63211;48.548;2.704;2023-05-13T08:14:56;0.85;;;0.50;;
74679;SDS011;63211;48.548;2.704;2023-05-13T08:17:22;1.63;;;0.40;;
74679;SDS011;63211;48.548;2.704;2023-05-13T08:19:49;1.10;;;0.50;;
74679;SDS011;63211;48.548;2.704;2023-05-13T08:22:16;1.42;;;0.63;;
74679;SDS011;63211;48.548;2.704;2023-05-13T08:24:42;1.33;;;0.52;;
74679;SDS011;63211;48.548;2.704;2023-05-13T08:27:09;1.05;;;0.57;;
74679;SDS011;63211;48.548;2.704;2023-05-13T08:29:36;0.80;;;0.57;;
74679;SDS011;63211;48.548;2.704;2023-05-13T08:32:05;1.15;;;0.65;;
74679;SDS011;63211;48.548;2.704;2023-05-13T08:34:32;2.53;;;0.68;;
74679;SDS011;63211;48.548;2.704;2023-05-13T08:36:58;2.38;;;0.47;;
74679;SDS011;63211;48.548;2.704;2023-05-13T08:39:25;1.38;;;0.50;;
74679;SDS011;63211;48.548;2.704;2023-05-13T08:41:51;2.15;;;0.47;;
74679;SDS011;63211;48.548;2.704;2023-05-13T08:44:22;1.10;;;0.77;;
74679;SDS011;63211;48.548;2.704;2023-05-13T08:46:56;3.47;;;0.60;;
74679;SDS011;63211;48.548;2.704;2023-05-13T08:49:28;1.30;;;0.50;;
74679;SDS011;63211;48.548;2.704;2023-05-13T08:51:55;1.80;;;0.65;;
74679;SDS011;63211;48.548;2.704;2023-05-13T08:54:22;3.20;;;0.70;;
74679;SDS011;63211;48.548;2.704;2023-05-13T08:56:50;2.53;;;0.65;;
74679;SDS011;63211;48.548;2.704;2023-05-13T08:59:17;2.35;;;0.65;;
74679;SDS011;63211;48.548;2.704;2023-05-13T09:01:43;3.33;;;0.75;;
74679;SDS011;63211;48.548;2.704;2023-05-13T09:04:10;3.00;;;0.70;;
74679;SDS011;63211;48.548;2.704;2023-05-13T09:06:39;0.77;;;0.40;;
74679;SDS011;63211;48.548;2.704;2023-05-13T09:09:05;1.45;;;0.77;;
74679;SDS011;63211;48.548;2.704;2023-05-13T09:11:33;0.90;;;0.60;;
74679;SDS011;63211;48.548;2.704;2023-05-13T09:14:01;1.75;;;0.65;;
74679;SDS011;63211;48.548;2.704;2023-05-13T09:21:29;1.15;;;0.55;;
74679;SDS011;63211;48.548;2.704;2023-05-13T09:24:07;0.85;;;0.50;;
74679;SDS011;63211;48.548;2.704;2023-05-13T09:26:35;1.42;;;0.70;;
74679;SDS011;63211;48.548;2.704;2023-05-13T09:29:13;1.02;;;0.60;;
74679;SDS011;63211;48.548;2.704;2023-05-13T09:31:41;1.50;;;0.80;;
74679;SDS011;63211;48.548;2.704;2023-05-13T09:34:08;3.90;;;0.77;;
74679;SDS011;63211;48.548;2.704;2023-05-13T09:36:35;1.55;;;0.70;;
74679;SDS011;63211;48.548;2.704;2023-05-13T09:39:02;2.70;;;0.82;;
74679;SDS011;63211;48.548;2.704;2023-05-13T09:41:30;1.20;;;0.73;;
74679;SDS011;63211;48.548;2.704;2023-05-13T09:43:57;4.40;;;0.95;;
74679;SDS011;63211;48.548;2.704;2023-05-13T09:46:27;2.28;;;0.90;;
74679;SDS011;63211;48.548;2.704;2023-05-13T09:48:55;2.03;;;1.27;;
74679;SDS011;63211;48.548;2.704;2023-05-13T09:51:24;1.75;;;1.10;;
74679;SDS011;63211;48.548;2.704;2023-05-13T09:53:51;2.80;;;1.10;;
74679;SDS011;63211;48.548;2.704;2023-05-13T09:56:18;1.60;;;1.00;;
74679;SDS011;63211;48.548;2.704;2023-05-13T09:58:51;2.53;;;1.05;;
74679;SDS011;63211;48.548;2.704;2023-05-13T10:01:18;2.80;;;0.90;;
74679;SDS011;63211;48.548;2.704;2023-05-13T10:03:45;3.00;;;1.50;;
74679;SDS011;63211;48.548;2.704;2023-05-13T10:06:12;2.83;;;1.40;;
74679;SDS011;63211;48.548;2.704;2023-05-13T10:08:41;2.95;;;1.27;;
74679;SDS011;63211;48.548;2.704;2023-05-13T10:11:09;3.55;;;1.80;;
74679;SDS011;63211;48.548;2.704;2023-05-13T10:13:39;2.30;;;1.23;;
74679;SDS011;63211;48.548;2.704;2023-05-13T10:16:09;1.95;;;1.20;;
74679;SDS011;63211;48.548;2.704;2023-05-13T10:18:36;2.65;;;1.50;;
74679;SDS011;63211;48.548;2.704;2023-05-13T10:21:03;2.83;;;1.70;;
74679;SDS011;63211;48.548;2.704;2023-05-13T10:23:31;2.97;;;1.38;;
74679;SDS011;63211;48.548;2.704;2023-05-13T10:25:58;2.58;;;1.90;;
74679;SDS011;63211;48.548;2.704;2023-05-13T10:28:25;2.55;;;1.60;;
74679;SDS011;63211;48.548;2.704;2023-05-13T10:30:53;3.45;;;1.98;;
74679;SDS011;63211;48.548;2.704;2023-05-13T10:33:21;4.15;;;1.85;;
74679;SDS011;63211;48.548;2.704;2023-05-13T10:35:49;3.63;;;1.98;;
74679;SDS011;63211;48.548;2.704;2023-05-13T10:38:25;3.95;;;1.83;;
74679;SDS011;63211;48.548;2.704;2023-05-13T10:43:39;3.70;;;1.77;;
74679;SDS011;63211;48.548;2.704;2023-05-13T10:46:07;3.83;;;1.75;;
74679;SDS011;63211;48.548;2.704;2023-05-13T10:48:39;3.28;;;1.60;;
74679;SDS011;63211;48.548;2.704;2023-05-13T10:51:07;3.35;;;1.90;;
74679;SDS011;63211;48.548;2.704;2023-05-13T10:53:35;4.45;;;2.03;;
74679;SDS011;63211;48.548;2.704;2023-05-13T10:56:11;4.90;;;2.05;;
74679;SDS011;63211;48.548;2.704;2023-05-13T10:58:38;4.45;;;1.63;;
74679;SDS011;63211;48.548;2.704;2023-05-13T11:01:11;3.67;;;2.17;;
74679;SDS011;63211;48.548;2.704;2023-05-13T11:03:41;3.53;;;1.90;;
74679;SDS011;63211;48.548;2.704;2023-05-13T11:06:15;3.65;;;2.15;;
74679;SDS011;63211;48.548;2.704;2023-05-13T11:08:43;5.00;;;2.10;;
74679;SDS011;63211;48.548;2.704;2023-05-13T11:14:06;4.03;;;2.20;;
74679;SDS011;63211;48.548;2.704;2023-05-13T11:16:44;4.53;;;2.38;;
74679;SDS011;63211;48.548;2.704;2023-05-13T11:19:18;4.38;;;2.35;;
74679;SDS011;63211;48.548;2.704;2023-05-13T11:21:48;4.15;;;2.30;;
74679;SDS011;63211;48.548;2.704;2023-05-13T11:24:17;3.22;;;2.10;;
74679;SDS011;63211;48.548;2.704;2023-05-13T11:26:44;5.10;;;2.03;;
74679;SDS011;63211;48.548;2.704;2023-05-13T11:29:12;6.80;;;2.80;;
74679;SDS011;63211;48.548;2.704;2023-05-13T11:31:43;3.78;;;2.28;;
74679;SDS011;63211;48.548;2.704;2023-05-13T11:34:13;4.55;;;2.33;;
74679;SDS011;63211;48.548;2.704;2023-05-13T11:36:43;4.18;;;2.10;;
74679;SDS011;63211;48.548;2.704;2023-05-13T11:39:12;6.60;;;2.38;;
74679;SDS011;63211;48.548;2.704;2023-05-13T11:41:41;6.70;;;2.55;;
74679;SDS011;63211;48.548;2.704;2023-05-13T11:44:10;5.15;;;2.00;;
74679;SDS011;63211;48.548;2.704;2023-05-13T11:46:38;7.05;;;2.35;;
74679;SDS011;63211;48.548;2.704;2023-05-13T11:49:27;7.05;;;2.50;;
74679;SDS011;63211;48.548;2.704;2023-05-13T11:51:58;3.92;;;2.28;;
74679;SDS011;63211;48.548;2.704;2023-05-13T11:54:25;6.90;;;3.03;;
74679;SDS011;63211;48.548;2.704;2023-05-13T11:56:52;4.72;;;2.53;;
74679;SDS011;63211;48.548;2.704;2023-05-13T11:59:18;4.55;;;1.95;;
74679;SDS011;63211;48.548;2.704;2023-05-13T12:01:45;10.55;;;2.65;;
74679;SDS011;63211;48.548;2.704;2023-05-13T12:04:25;3.58;;;1.98;;
74679;SDS011;63211;48.548;2.704;2023-05-13T12:06:53;10.25;;;2.88;;
74679;SDS011;63211;48.548;2.704;2023-05-13T12:09:22;4.03;;;1.98;;
74679;SDS011;63211;48.548;2.704;2023-05-13T12:11:49;4.00;;;2.30;;
74679;SDS011;63211;48.548;2.704;2023-05-13T12:14:17;5.72;;;2.83;;
74679;SDS011;63211;48.548;2.704;2023-05-13T12:16:44;5.50;;;2.35;;
74679;SDS011;63211;48.548;2.704;2023-05-13T12:19:11;3.45;;;2.13;;
74679;SDS011;63211;48.548;2.704;2023-05-13T12:21:38;5.82;;;2.33;;
74679;SDS011;63211;48.548;2.704;2023-05-13T12:24:15;3.92;;;2.45;;
74679;SDS011;63211;48.548;2.704;2023-05-13T12:26:44;4.85;;;2.30;;
74679;SDS011;63211;48.548;2.704;2023-05-13T12:29:10;4.35;;;2.30;;
74679;SDS011;63211;48.548;2.704;2023-05-13T12:31:37;5.28;;;2.50;;
74679;SDS011;63211;48.548;2.704;2023-05-13T12:34:06;5.32;;;1.95;;
74679;SDS011;63211;48.548;2.704;2023-05-13T12:36:35;7.22;;;2.70;;
74679;SDS011;63211;48.548;2.704;2023-05-13T12:39:03;4.20;;;2.17;;
74679;SDS011;63211;48.548;2.704;2023-05-13T12:41:32;4.20;;;2.53;;
74679;SDS011;63211;48.548;2.704;2023-05-13T12:44:01;4.70;;;2.60;;
74679;SDS011;63211;48.548;2.704;2023-05-13T12:46:29;4.47;;;2.53;;
74679;SDS011;63211;48.548;2.704;2023-05-13T12:48:57;4.50;;;2.33;;
74679;SDS011;63211;48.548;2.704;2023-05-13T12:51:25;5.53;;;2.30;;
74679;SDS011;63211;48.548;2.704;2023-05-13T12:53:53;4.18;;;2.30;;
74679;SDS011;63211;48.548;2.704;2023-05-13T12:56:20;4.35;;;2.20;;
74679;SDS011;63211;48.548;2.704;2023-05-13T12:58:47;3.88;;;2.15;;
74679;SDS011;63211;48.548;2.704;2023-05-13T13:01:16;4.88;;;2.17;;
74679;SDS011;63211;48.548;2.704;2023-05-13T13:03:43;4.35;;;2.30;;
74679;SDS011;63211;48.548;2.704;2023-05-13T13:06:10;3.40;;;2.30;;
74679;SDS011;63211;48.548;2.704;2023-05-13T13:08:37;4.93;;;2.20;;
74679;SDS011;63211;48.548;2.704;2023-05-13T13:11:04;3.83;;;2.03;;
74679;SDS011;63211;48.548;2.704;2023-05-13T13:13:31;4.35;;;2.17;;
74679;SDS011;63211;48.548;2.704;2023-05-13T13:15:57;3.83;;;2.17;;
74679;SDS011;63211;48.548;2.704;2023-05-13T13:18:25;4.03;;;2.00;;
74679;SDS011;63211;48.548;2.704;2023-05-13T13:20:53;3.97;;;2.25;;
74679;SDS011;63211;48.548;2.704;2023-05-13T13:23:20;4.40;;;2.30;;
74679;SDS011;63211;48.548;2.704;2023-05-13T13:25:48;6.13;;;2.40;;
74679;SDS011;63211;48.548;2.704;2023-05-13T13:28:14;3.75;;;2.00;;
74679;SDS011;63211;48.548;2.704;2023-05-13T13:30:41;5.00;;;2.28;;
74679;SDS011;63211;48.548;2.704;2023-05-13T13:33:11;3.15;;;2.15;;
74679;SDS011;63211;48.548;2.704;2023-05-13T13:35:39;5.20;;;2.38;;
74679;SDS011;63211;48.548;2.704;2023-05-13T13:38:07;5.50;;;2.30;;
74679;SDS011;63211;48.548;2.704;2023-05-13T13:40:33;5.93;;;2.42;;
74679;SDS011;63211;48.548;2.704;2023-05-13T13:43:01;4.75;;;2.47;;
74679;SDS011;63211;48.548;2.704;2023-05-13T13:45:27;3.90;;;2.42;;
74679;SDS011;63211;48.548;2.704;2023-05-13T13:47:54;3.47;;;2.20;;
74679;SDS011;63211;48.548;2.704;2023-05-13T13:50:20;3.53;;;2.50;;
74679;SDS011;63211;48.548;2.704;2023-05-13T13:52:48;4.85;;;2.70;;
74679;SDS011;63211;48.548;2.704;2023-05-13T13:55:16;4.38;;;2.53;;
74679;SDS011;63211;48.548;2.704;2023-05-13T13:57:43;6.40;;;2.60;;
74679;SDS011;63211;48.548;2.704;2023-05-13T14:00:10;3.33;;;2.05;;
74679;SDS011;63211;48.548;2.704;2023-05-13T14:02:38;3.25;;;2.13;;
74679;SDS011;63211;48.548;2.704;2023-05-13T14:05:05;4.03;;;2.40;;
74679;SDS011;63211;48.548;2.704;2023-05-13T14:07:32;3.95;;;2.03;;
74679;SDS011;63211;48.548;2.704;2023-05-13T14:10:00;3.88;;;2.30;;
74679;SDS011;63211;48.548;2.704;2023-05-13T14:12:27;3.05;;;2.00;;
74679;SDS011;63211;48.548;2.704;2023-05-13T14:14:53;3.80;;;2.35;;
74679;SDS011;63211;48.548;2.704;2023-05-13T14:17:20;3.97;;;2.40;;
74679;SDS011;63211;48.548;2.704;2023-05-13T14:19:47;2.88;;;1.92;;
74679;SDS011;63211;48.548;2.704;2023-05-13T14:22:15;4.82;;;2.50;;
74679;SDS011;63211;48.548;2.704;2023-05-13T14:24:42;4.40;;;2.60;;
74679;SDS011;63211;48.548;2.704;2023-05-13T14:27:10;5.10;;;2.55;;
74679;SDS011;63211;48.548;2.704;2023-05-13T14:29:37;3.85;;;2.20;;
74679;SDS011;63211;48.548;2.704;2023-05-13T14:32:04;4.07;;;2.70;;
74679;SDS011;63211;48.548;2.704;2023-05-13T14:34:31;3.45;;;2.40;;
74679;SDS011;63211;48.548;2.704;2023-05-13T14:36:57;4.38;;;2.40;;
74679;SDS011;63211;48.548;2.704;2023-05-13T14:39:24;3.60;;;2.28;;
74679;SDS011;63211;48.548;2.704;2023-05-13T14:41:50;3.60;;;2.15;;
74679;SDS011;63211;48.548;2.704;2023-05-13T14:44:18;4.00;;;2.33;;
74679;SDS011;63211;48.548;2.704;2023-05-13T14:46:45;3.33;;;2.13;;
74679;SDS011;63211;48.548;2.704;2023-05-13T14:49:11;3.38;;;2.25;;
74679;SDS011;63211;48.548;2.704;2023-05-13T14:51:38;4.00;;;1.98;;
74679;SDS011;63211;48.548;2.704;2023-05-13T14:54:05;3.28;;;2.08;;
74679;SDS011;63211;48.548;2.704;2023-05-13T14:56:31;4.35;;;1.88;;
74679;SDS011;63211;48.548;2.704;2023-05-13T14:58:58;4.30;;;2.38;;
74679;SDS011;63211;48.548;2.704;2023-05-13T15:01:27;2.83;;;2.00;;